sensor_id;sensor_type;location;lat;lon;timestamp;P1;durP1;ratioP1;P2;durP2;ratioP2
32611;SDS011;19030;49.478;8.986;2023-07-20T00:00:37;7.03;;;2.97;;
32611;SDS011;19030;49.478;8.986;2023-07-20T00:02:38;6.50;;;3.17;;
32611;SDS011;19030;49.478;8.986;2023-07-20T00:04:38;7.00;;;3.47;;
32611;SDS011;19030;49.478;8.986;2023-07-20T00:06:39;8.10;;;2.92;;
32611;SDS011;19030;49.478;8.986;2023-07-20T00:08:40;7.90;;;3.22;;
32611;SDS011;19030;49.478;8.986;2023-07-20T00:10:41;6.70;;;3.00;;
32611;SDS011;19030;49.478;8.986;2023-07-20T00:12:42;5.55;;;2.67;;
32611;SDS011;19030;49.478;8.986;2023-07-20T00:14:47;5.87;;;2.90;;
32611;SDS011;19030;49.478;8.986;2023-07-20T00:16:49;5.80;;;2.83;;
32611;SDS011;19030;49.478;8.986;2023-07-20T00:18:55;5.55;;;2.60;;
32611;SDS011;19030;49.478;8.986;2023-07-20T00:20:56;4.82;;;2.70;;
32611;SDS011;19030;49.478;8.986;2023-07-20T00:22:57;5.70;;;2.70;;
32611;SDS011;19030;49.478;8.986;2023-07-20T00:24:58;5.93;;;2.72;;
32611;SDS011;19030;49.478;8.986;2023-07-20T00:26:58;5.50;;;2.72;;
32611;SDS011;19030;49.478;8.986;2023-07-20T00:29:00;7.60;;;2.97;;
32611;SDS011;19030;49.478;8.986;2023-07-20T00:31:01;6.57;;;2.67;;
32611;SDS011;19030;49.478;8.986;2023-07-20T00:33:03;7.70;;;2.92;;
32611;SDS011;19030;49.478;8.986;2023-07-20T00:35:04;5.50;;;2.65;;
32611;SDS011;19030;49.478;8.986;2023-07-20T00:37:05;5.82;;;2.90;;
32611;SDS011;19030;49.478;8.986;2023-07-20T00:39:05;7.97;;;2.90;;
32611;SDS011;19030;49.478;8.986;2023-07-20T00:41:06;8.20;;;2.95;;
32611;SDS011;19030;49.478;8.986;2023-07-20T00:43:08;6.93;;;2.90;;
32611;SDS011;19030;49.478;8.986;2023-07-20T00:45:09;5.88;;;2.70;;
32611;SDS011;19030;49.478;8.986;2023-07-20T00:47:09;6.45;;;2.60;;
32611;SDS011;19030;49.478;8.986;2023-07-20T00:49:10;5.82;;;2.80;;
32611;SDS011;19030;49.478;8.986;2023-07-20T00:51:12;6.00;;;2.90;;
32611;SDS011;19030;49.478;8.986;2023-07-20T00:53:13;7.22;;;3.00;;
32611;SDS011;19030;49.478;8.986;2023-07-20T00:55:13;6.22;;;2.85;;
32611;SDS011;19030;49.478;8.986;2023-07-20T00:57:15;4.95;;;2.50;;
32611;SDS011;19030;49.478;8.986;2023-07-20T00:59:17;6.43;;;2.60;;
32611;SDS011;19030;49.478;8.986;2023-07-20T01:01:18;7.40;;;2.80;;
32611;SDS011;19030;49.478;8.986;2023-07-20T01:03:19;5.07;;;2.80;;
32611;SDS011;19030;49.478;8.986;2023-07-20T01:05:19;5.40;;;2.95;;
32611;SDS011;19030;49.478;8.986;2023-07-20T01:07:31;5.38;;;2.72;;
32611;SDS011;19030;49.478;8.986;2023-07-20T01:09:45;7.93;;;2.85;;
32611;SDS011;19030;49.478;8.986;2023-07-20T01:12:08;5.60;;;3.00;;
32611;SDS011;19030;49.478;8.986;2023-07-20T01:14:13;6.35;;;2.88;;
32611;SDS011;19030;49.478;8.986;2023-07-20T01:16:15;6.03;;;2.90;;
32611;SDS011;19030;49.478;8.986;2023-07-20T01:18:16;6.20;;;2.88;;
32611;SDS011;19030;49.478;8.986;2023-07-20T01:20:18;5.40;;;2.78;;
32611;SDS011;19030;49.478;8.986;2023-07-20T01:22:24;4.65;;;2.72;;
32611;SDS011;19030;49.478;8.986;2023-07-20T01:24:51;6.97;;;2.80;;
32611;SDS011;19030;49.478;8.986;2023-07-20T01:29:33;5.38;;;2.92;;
32611;SDS011;19030;49.478;8.986;2023-07-20T01:31:53;6.25;;;2.92;;
32611;SDS011;19030;49.478;8.986;2023-07-20T01:33:56;7.00;;;3.13;;
32611;SDS011;19030;49.478;8.986;2023-07-20T01:35:58;7.78;;;3.10;;
32611;SDS011;19030;49.478;8.986;2023-07-20T01:38:02;5.82;;;2.92;;
32611;SDS011;19030;49.478;8.986;2023-07-20T01:40:04;8.65;;;3.10;;
32611;SDS011;19030;49.478;8.986;2023-07-20T01:42:05;8.98;;;3.13;;
32611;SDS011;19030;49.478;8.986;2023-07-20T01:44:06;5.82;;;2.80;;
32611;SDS011;19030;49.478;8.986;2023-07-20T01:46:08;8.27;;;3.00;;
32611;SDS011;19030;49.478;8.986;2023-07-20T01:48:09;7.28;;;2.95;;
32611;SDS011;19030;49.478;8.986;2023-07-20T01:50:09;6.53;;;2.95;;
32611;SDS011;19030;49.478;8.986;2023-07-20T01:52:10;5.72;;;2.92;;
32611;SDS011;19030;49.478;8.986;2023-07-20T01:54:11;7.72;;;3.28;;
32611;SDS011;19030;49.478;8.986;2023-07-20T01:56:11;6.30;;;2.83;;
32611;SDS011;19030;49.478;8.986;2023-07-20T01:58:12;6.82;;;3.20;;
32611;SDS011;19030;49.478;8.986;2023-07-20T02:00:13;6.15;;;3.03;;
32611;SDS011;19030;49.478;8.986;2023-07-20T02:02:16;8.85;;;3.85;;
32611;SDS011;19030;49.478;8.986;2023-07-20T02:04:19;6.20;;;2.70;;
32611;SDS011;19030;49.478;8.986;2023-07-20T02:06:20;6.80;;;2.92;;
32611;SDS011;19030;49.478;8.986;2023-07-20T02:08:22;9.35;;;2.88;;
32611;SDS011;19030;49.478;8.986;2023-07-20T02:10:23;4.57;;;2.72;;
32611;SDS011;19030;49.478;8.986;2023-07-20T02:12:23;7.05;;;2.78;;
32611;SDS011;19030;49.478;8.986;2023-07-20T02:14:24;6.60;;;2.92;;
32611;SDS011;19030;49.478;8.986;2023-07-20T02:16:25;5.10;;;2.65;;
32611;SDS011;19030;49.478;8.986;2023-07-20T02:18:25;5.82;;;2.78;;
32611;SDS011;19030;49.478;8.986;2023-07-20T02:20:26;4.20;;;2.58;;
32611;SDS011;19030;49.478;8.986;2023-07-20T02:22:27;5.90;;;3.00;;
32611;SDS011;19030;49.478;8.986;2023-07-20T02:24:28;6.30;;;2.83;;
32611;SDS011;19030;49.478;8.986;2023-07-20T02:26:28;5.97;;;2.83;;
32611;SDS011;19030;49.478;8.986;2023-07-20T02:28:29;7.10;;;3.47;;
32611;SDS011;19030;49.478;8.986;2023-07-20T02:30:29;6.00;;;3.10;;
32611;SDS011;19030;49.478;8.986;2023-07-20T02:32:30;6.20;;;3.35;;
32611;SDS011;19030;49.478;8.986;2023-07-20T02:34:32;6.38;;;3.10;;
32611;SDS011;19030;49.478;8.986;2023-07-20T02:36:33;7.43;;;3.00;;
32611;SDS011;19030;49.478;8.986;2023-07-20T02:38:34;6.93;;;2.92;;
32611;SDS011;19030;49.478;8.986;2023-07-20T02:40:34;7.72;;;3.35;;
32611;SDS011;19030;49.478;8.986;2023-07-20T02:42:35;7.07;;;2.92;;
32611;SDS011;19030;49.478;8.986;2023-07-20T02:44:36;7.78;;;3.13;;
32611;SDS011;19030;49.478;8.986;2023-07-20T02:46:36;8.23;;;3.10;;
32611;SDS011;19030;49.478;8.986;2023-07-20T02:48:37;6.68;;;2.90;;
32611;SDS011;19030;49.478;8.986;2023-07-20T02:50:37;6.75;;;3.22;;
32611;SDS011;19030;49.478;8.986;2023-07-20T02:52:38;6.93;;;3.10;;
32611;SDS011;19030;49.478;8.986;2023-07-20T02:54:38;5.88;;;2.95;;
32611;SDS011;19030;49.478;8.986;2023-07-20T02:56:39;7.85;;;3.25;;
32611;SDS011;19030;49.478;8.986;2023-07-20T02:58:40;5.07;;;2.75;;
32611;SDS011;19030;49.478;8.986;2023-07-20T03:00:45;7.95;;;3.30;;
32611;SDS011;19030;49.478;8.986;2023-07-20T03:02:46;8.05;;;3.38;;
32611;SDS011;19030;49.478;8.986;2023-07-20T03:04:52;7.97;;;3.15;;
32611;SDS011;19030;49.478;8.986;2023-07-20T03:06:54;7.05;;;3.17;;
32611;SDS011;19030;49.478;8.986;2023-07-20T03:08:54;6.22;;;3.05;;
32611;SDS011;19030;49.478;8.986;2023-07-20T03:10:55;6.57;;;3.05;;
32611;SDS011;19030;49.478;8.986;2023-07-20T03:12:56;6.47;;;3.25;;
32611;SDS011;19030;49.478;8.986;2023-07-20T03:14:56;6.93;;;2.80;;
32611;SDS011;19030;49.478;8.986;2023-07-20T03:16:57;7.68;;;3.20;;
32611;SDS011;19030;49.478;8.986;2023-07-20T03:18:58;6.22;;;3.10;;
32611;SDS011;19030;49.478;8.986;2023-07-20T03:21:00;7.63;;;3.08;;
32611;SDS011;19030;49.478;8.986;2023-07-20T03:23:00;8.05;;;3.33;;
32611;SDS011;19030;49.478;8.986;2023-07-20T03:25:01;6.80;;;3.50;;
32611;SDS011;19030;49.478;8.986;2023-07-20T03:27:01;7.10;;;3.17;;
32611;SDS011;19030;49.478;8.986;2023-07-20T03:29:03;7.47;;;3.20;;
32611;SDS011;19030;49.478;8.986;2023-07-20T03:31:06;8.40;;;3.50;;
32611;SDS011;19030;49.478;8.986;2023-07-20T03:33:10;7.55;;;3.00;;
32611;SDS011;19030;49.478;8.986;2023-07-20T03:35:11;5.68;;;3.03;;
32611;SDS011;19030;49.478;8.986;2023-07-20T03:37:12;10.93;;;2.92;;
32611;SDS011;19030;49.478;8.986;2023-07-20T03:39:13;5.80;;;3.05;;
32611;SDS011;19030;49.478;8.986;2023-07-20T03:41:13;8.18;;;3.53;;
32611;SDS011;19030;49.478;8.986;2023-07-20T03:43:16;9.02;;;3.03;;
32611;SDS011;19030;49.478;8.986;2023-07-20T03:45:17;8.95;;;3.28;;
32611;SDS011;19030;49.478;8.986;2023-07-20T03:47:18;9.90;;;3.50;;
32611;SDS011;19030;49.478;8.986;2023-07-20T03:49:18;7.22;;;3.45;;
32611;SDS011;19030;49.478;8.986;2023-07-20T03:51:19;6.22;;;2.97;;
32611;SDS011;19030;49.478;8.986;2023-07-20T03:53:19;7.82;;;3.40;;
32611;SDS011;19030;49.478;8.986;2023-07-20T03:55:20;8.10;;;3.22;;
32611;SDS011;19030;49.478;8.986;2023-07-20T03:57:21;8.40;;;3.30;;
32611;SDS011;19030;49.478;8.986;2023-07-20T03:59:21;7.18;;;3.25;;
32611;SDS011;19030;49.478;8.986;2023-07-20T04:01:22;6.90;;;3.55;;
32611;SDS011;19030;49.478;8.986;2023-07-20T04:03:22;5.35;;;3.03;;
32611;SDS011;19030;49.478;8.986;2023-07-20T04:05:26;6.55;;;3.35;;
32611;SDS011;19030;49.478;8.986;2023-07-20T04:07:26;8.25;;;2.95;;
32611;SDS011;19030;49.478;8.986;2023-07-20T04:09:27;7.10;;;3.28;;
32611;SDS011;19030;49.478;8.986;2023-07-20T04:11:28;7.47;;;3.15;;
32611;SDS011;19030;49.478;8.986;2023-07-20T04:13:28;6.95;;;3.53;;
32611;SDS011;19030;49.478;8.986;2023-07-20T04:15:33;6.65;;;3.10;;
32611;SDS011;19030;49.478;8.986;2023-07-20T04:17:33;10.88;;;3.42;;
32611;SDS011;19030;49.478;8.986;2023-07-20T04:19:34;5.85;;;3.20;;
32611;SDS011;19030;49.478;8.986;2023-07-20T04:21:39;8.00;;;3.38;;
32611;SDS011;19030;49.478;8.986;2023-07-20T04:23:41;8.82;;;3.55;;
32611;SDS011;19030;49.478;8.986;2023-07-20T04:25:42;5.68;;;3.05;;
32611;SDS011;19030;49.478;8.986;2023-07-20T04:27:45;8.98;;;3.20;;
32611;SDS011;19030;49.478;8.986;2023-07-20T04:29:46;7.30;;;3.58;;
32611;SDS011;19030;49.478;8.986;2023-07-20T04:31:47;6.32;;;3.47;;
32611;SDS011;19030;49.478;8.986;2023-07-20T04:33:47;6.38;;;3.10;;
32611;SDS011;19030;49.478;8.986;2023-07-20T04:35:52;6.50;;;3.10;;
32611;SDS011;19030;49.478;8.986;2023-07-20T04:38:06;8.35;;;3.55;;
32611;SDS011;19030;49.478;8.986;2023-07-20T04:40:08;8.40;;;2.92;;
32611;SDS011;19030;49.478;8.986;2023-07-20T04:42:09;5.90;;;3.25;;
32611;SDS011;19030;49.478;8.986;2023-07-20T04:44:09;6.82;;;3.10;;
32611;SDS011;19030;49.478;8.986;2023-07-20T04:46:10;9.13;;;3.83;;
32611;SDS011;19030;49.478;8.986;2023-07-20T04:48:15;7.80;;;3.33;;
32611;SDS011;19030;49.478;8.986;2023-07-20T04:50:25;7.20;;;3.20;;
32611;SDS011;19030;49.478;8.986;2023-07-20T04:52:26;6.43;;;3.17;;
32611;SDS011;19030;49.478;8.986;2023-07-20T04:54:27;6.97;;;3.20;;
32611;SDS011;19030;49.478;8.986;2023-07-20T04:56:27;7.78;;;3.28;;
32611;SDS011;19030;49.478;8.986;2023-07-20T04:58:30;7.30;;;3.35;;
32611;SDS011;19030;49.478;8.986;2023-07-20T05:00:31;7.47;;;3.22;;
32611;SDS011;19030;49.478;8.986;2023-07-20T05:02:33;7.85;;;3.40;;
32611;SDS011;19030;49.478;8.986;2023-07-20T05:04:33;7.15;;;3.67;;
32611;SDS011;19030;49.478;8.986;2023-07-20T05:06:34;5.88;;;3.03;;
32611;SDS011;19030;49.478;8.986;2023-07-20T05:08:35;7.68;;;3.50;;
32611;SDS011;19030;49.478;8.986;2023-07-20T05:10:35;6.55;;;3.38;;
32611;SDS011;19030;49.478;8.986;2023-07-20T05:12:36;12.35;;;3.58;;
32611;SDS011;19030;49.478;8.986;2023-07-20T05:14:37;6.38;;;3.42;;
32611;SDS011;19030;49.478;8.986;2023-07-20T05:16:39;6.40;;;3.20;;
32611;SDS011;19030;49.478;8.986;2023-07-20T05:18:41;7.25;;;3.35;;
32611;SDS011;19030;49.478;8.986;2023-07-20T05:20:42;6.15;;;3.13;;
32611;SDS011;19030;49.478;8.986;2023-07-20T05:22:43;7.15;;;3.53;;
32611;SDS011;19030;49.478;8.986;2023-07-20T05:24:43;7.07;;;3.70;;
32611;SDS011;19030;49.478;8.986;2023-07-20T05:26:44;9.80;;;3.70;;
32611;SDS011;19030;49.478;8.986;2023-07-20T05:28:45;8.82;;;3.65;;
32611;SDS011;19030;49.478;8.986;2023-07-20T05:30:45;6.93;;;3.83;;
32611;SDS011;19030;49.478;8.986;2023-07-20T05:32:46;6.47;;;3.72;;
32611;SDS011;19030;49.478;8.986;2023-07-20T05:34:51;7.05;;;3.50;;
32611;SDS011;19030;49.478;8.986;2023-07-20T05:36:55;9.50;;;4.18;;
32611;SDS011;19030;49.478;8.986;2023-07-20T05:38:55;9.48;;;4.30;;
32611;SDS011;19030;49.478;8.986;2023-07-20T05:40:59;7.55;;;3.70;;
32611;SDS011;19030;49.478;8.986;2023-07-20T05:43:02;10.20;;;3.90;;
32611;SDS011;19030;49.478;8.986;2023-07-20T05:45:03;9.20;;;3.90;;
32611;SDS011;19030;49.478;8.986;2023-07-20T05:47:04;8.55;;;3.97;;
32611;SDS011;19030;49.478;8.986;2023-07-20T05:49:05;7.82;;;3.72;;
32611;SDS011;19030;49.478;8.986;2023-07-20T05:51:06;7.88;;;4.20;;
32611;SDS011;19030;49.478;8.986;2023-07-20T05:53:06;7.68;;;4.00;;
32611;SDS011;19030;49.478;8.986;2023-07-20T05:55:07;6.38;;;3.47;;
32611;SDS011;19030;49.478;8.986;2023-07-20T05:57:08;7.15;;;3.78;;
32611;SDS011;19030;49.478;8.986;2023-07-20T05:59:09;8.20;;;3.75;;
32611;SDS011;19030;49.478;8.986;2023-07-20T06:01:10;8.57;;;3.72;;
32611;SDS011;19030;49.478;8.986;2023-07-20T06:03:10;7.05;;;3.92;;
32611;SDS011;19030;49.478;8.986;2023-07-20T06:05:11;8.38;;;3.72;;
32611;SDS011;19030;49.478;8.986;2023-07-20T06:07:12;9.55;;;4.03;;
32611;SDS011;19030;49.478;8.986;2023-07-20T06:09:12;6.85;;;3.50;;
32611;SDS011;19030;49.478;8.986;2023-07-20T06:11:13;7.93;;;3.58;;
32611;SDS011;19030;49.478;8.986;2023-07-20T06:13:13;8.77;;;4.18;;
32611;SDS011;19030;49.478;8.986;2023-07-20T06:15:27;8.68;;;3.45;;
32611;SDS011;19030;49.478;8.986;2023-07-20T06:17:30;8.25;;;4.00;;
32611;SDS011;19030;49.478;8.986;2023-07-20T06:19:31;6.80;;;3.50;;
32611;SDS011;19030;49.478;8.986;2023-07-20T06:21:32;6.95;;;3.88;;
32611;SDS011;19030;49.478;8.986;2023-07-20T06:23:32;9.00;;;4.00;;
32611;SDS011;19030;49.478;8.986;2023-07-20T06:25:33;7.35;;;4.18;;
32611;SDS011;19030;49.478;8.986;2023-07-20T06:27:33;6.75;;;3.60;;
32611;SDS011;19030;49.478;8.986;2023-07-20T06:29:34;8.23;;;3.33;;
32611;SDS011;19030;49.478;8.986;2023-07-20T06:31:34;6.70;;;3.35;;
32611;SDS011;19030;49.478;8.986;2023-07-20T06:33:35;8.20;;;4.13;;
32611;SDS011;19030;49.478;8.986;2023-07-20T06:35:36;6.80;;;3.63;;
32611;SDS011;19030;49.478;8.986;2023-07-20T06:37:36;7.10;;;3.85;;
32611;SDS011;19030;49.478;8.986;2023-07-20T06:39:37;8.02;;;4.00;;
32611;SDS011;19030;49.478;8.986;2023-07-20T06:41:38;8.85;;;3.72;;
32611;SDS011;19030;49.478;8.986;2023-07-20T06:43:38;9.10;;;3.80;;
32611;SDS011;19030;49.478;8.986;2023-07-20T06:45:39;7.05;;;4.40;;
32611;SDS011;19030;49.478;8.986;2023-07-20T06:47:39;6.85;;;3.55;;
32611;SDS011;19030;49.478;8.986;2023-07-20T06:49:40;6.18;;;3.50;;
32611;SDS011;19030;49.478;8.986;2023-07-20T06:51:41;7.07;;;3.60;;
32611;SDS011;19030;49.478;8.986;2023-07-20T06:53:41;8.55;;;3.60;;
32611;SDS011;19030;49.478;8.986;2023-07-20T06:55:42;9.40;;;3.20;;
32611;SDS011;19030;49.478;8.986;2023-07-20T06:57:42;9.75;;;3.42;;
32611;SDS011;19030;49.478;8.986;2023-07-20T06:59:43;8.50;;;3.42;;
32611;SDS011;19030;49.478;8.986;2023-07-20T07:01:43;9.27;;;3.38;;
32611;SDS011;19030;49.478;8.986;2023-07-20T07:03:44;6.95;;;3.70;;
32611;SDS011;19030;49.478;8.986;2023-07-20T07:05:45;6.57;;;3.22;;
32611;SDS011;19030;49.478;8.986;2023-07-20T07:07:45;7.53;;;3.40;;
32611;SDS011;19030;49.478;8.986;2023-07-20T07:09:46;6.90;;;3.10;;
32611;SDS011;19030;49.478;8.986;2023-07-20T07:11:46;9.15;;;3.60;;
32611;SDS011;19030;49.478;8.986;2023-07-20T07:13:47;7.65;;;3.70;;
32611;SDS011;19030;49.478;8.986;2023-07-20T07:15:50;7.38;;;3.75;;
32611;SDS011;19030;49.478;8.986;2023-07-20T07:17:51;8.05;;;3.50;;
32611;SDS011;19030;49.478;8.986;2023-07-20T07:19:52;6.57;;;3.35;;
32611;SDS011;19030;49.478;8.986;2023-07-20T07:21:54;4.97;;;2.90;;
32611;SDS011;19030;49.478;8.986;2023-07-20T07:23:55;6.00;;;3.50;;
32611;SDS011;19030;49.478;8.986;2023-07-20T07:25:57;9.40;;;3.50;;
32611;SDS011;19030;49.478;8.986;2023-07-20T07:27:57;7.47;;;3.50;;
32611;SDS011;19030;49.478;8.986;2023-07-20T07:29:58;6.72;;;3.00;;
32611;SDS011;19030;49.478;8.986;2023-07-20T07:31:59;9.57;;;3.78;;
32611;SDS011;19030;49.478;8.986;2023-07-20T07:33:59;7.65;;;3.13;;
32611;SDS011;19030;49.478;8.986;2023-07-20T07:36:00;6.35;;;3.10;;
32611;SDS011;19030;49.478;8.986;2023-07-20T07:38:00;6.85;;;3.33;;
32611;SDS011;19030;49.478;8.986;2023-07-20T07:40:01;4.28;;;2.85;;
32611;SDS011;19030;49.478;8.986;2023-07-20T07:42:02;6.70;;;3.05;;
32611;SDS011;19030;49.478;8.986;2023-07-20T07:44:03;6.95;;;3.20;;
32611;SDS011;19030;49.478;8.986;2023-07-20T07:46:03;6.72;;;3.00;;
32611;SDS011;19030;49.478;8.986;2023-07-20T07:48:04;7.82;;;3.85;;
32611;SDS011;19030;49.478;8.986;2023-07-20T07:50:05;6.55;;;3.05;;
32611;SDS011;19030;49.478;8.986;2023-07-20T07:52:06;6.22;;;3.13;;
32611;SDS011;19030;49.478;8.986;2023-07-20T07:54:07;4.82;;;2.72;;
32611;SDS011;19030;49.478;8.986;2023-07-20T07:56:07;7.13;;;2.75;;
32611;SDS011;19030;49.478;8.986;2023-07-20T07:58:08;5.22;;;2.50;;
32611;SDS011;19030;49.478;8.986;2023-07-20T08:00:09;6.10;;;2.78;;
32611;SDS011;19030;49.478;8.986;2023-07-20T08:02:14;6.75;;;2.90;;
32611;SDS011;19030;49.478;8.986;2023-07-20T08:04:14;5.18;;;2.78;;
32611;SDS011;19030;49.478;8.986;2023-07-20T08:06:15;6.97;;;2.63;;
32611;SDS011;19030;49.478;8.986;2023-07-20T08:08:16;4.88;;;2.75;;
32611;SDS011;19030;49.478;8.986;2023-07-20T08:10:17;5.57;;;2.70;;
32611;SDS011;19030;49.478;8.986;2023-07-20T08:12:18;4.47;;;2.40;;
32611;SDS011;19030;49.478;8.986;2023-07-20T08:14:20;4.63;;;2.40;;
32611;SDS011;19030;49.478;8.986;2023-07-20T08:16:20;8.48;;;2.65;;
32611;SDS011;19030;49.478;8.986;2023-07-20T08:18:21;6.10;;;2.78;;
32611;SDS011;19030;49.478;8.986;2023-07-20T08:20:22;6.53;;;2.63;;
32611;SDS011;19030;49.478;8.986;2023-07-20T08:22:26;5.45;;;2.75;;
32611;SDS011;19030;49.478;8.986;2023-07-20T08:24:27;6.88;;;2.78;;
32611;SDS011;19030;49.478;8.986;2023-07-20T08:26:27;4.25;;;2.30;;
32611;SDS011;19030;49.478;8.986;2023-07-20T08:28:28;5.70;;;2.67;;
32611;SDS011;19030;49.478;8.986;2023-07-20T08:30:38;4.68;;;2.60;;
32611;SDS011;19030;49.478;8.986;2023-07-20T08:32:40;6.82;;;2.42;;
32611;SDS011;19030;49.478;8.986;2023-07-20T08:34:41;4.45;;;2.40;;
32611;SDS011;19030;49.478;8.986;2023-07-20T08:36:42;5.97;;;2.78;;
32611;SDS011;19030;49.478;8.986;2023-07-20T08:38:42;6.55;;;2.60;;
32611;SDS011;19030;49.478;8.986;2023-07-20T08:40:44;7.32;;;2.90;;
32611;SDS011;19030;49.478;8.986;2023-07-20T08:42:45;7.00;;;2.80;;
32611;SDS011;19030;49.478;8.986;2023-07-20T08:44:46;5.43;;;2.60;;
32611;SDS011;19030;49.478;8.986;2023-07-20T08:46:49;6.40;;;2.80;;
32611;SDS011;19030;49.478;8.986;2023-07-20T08:48:51;12.57;;;5.18;;
32611;SDS011;19030;49.478;8.986;2023-07-20T08:50:53;6.82;;;3.42;;
32611;SDS011;19030;49.478;8.986;2023-07-20T08:52:54;4.70;;;2.45;;
32611;SDS011;19030;49.478;8.986;2023-07-20T08:54:57;4.68;;;2.80;;
32611;SDS011;19030;49.478;8.986;2023-07-20T08:56:58;7.35;;;2.72;;
32611;SDS011;19030;49.478;8.986;2023-07-20T08:59:02;7.55;;;2.90;;
32611;SDS011;19030;49.478;8.986;2023-07-20T09:01:04;5.57;;;2.75;;
32611;SDS011;19030;49.478;8.986;2023-07-20T09:03:05;4.43;;;2.42;;
32611;SDS011;19030;49.478;8.986;2023-07-20T09:05:07;3.97;;;2.38;;
32611;SDS011;19030;49.478;8.986;2023-07-20T09:07:09;3.58;;;2.20;;
32611;SDS011;19030;49.478;8.986;2023-07-20T09:09:10;6.32;;;2.40;;
32611;SDS011;19030;49.478;8.986;2023-07-20T09:11:11;4.55;;;2.38;;
32611;SDS011;19030;49.478;8.986;2023-07-20T09:13:14;4.65;;;2.60;;
32611;SDS011;19030;49.478;8.986;2023-07-20T09:15:15;4.45;;;2.42;;
32611;SDS011;19030;49.478;8.986;2023-07-20T09:17:17;3.70;;;2.17;;
32611;SDS011;19030;49.478;8.986;2023-07-20T09:19:19;4.25;;;2.42;;
32611;SDS011;19030;49.478;8.986;2023-07-20T09:21:20;6.20;;;2.70;;
32611;SDS011;19030;49.478;8.986;2023-07-20T09:23:21;6.80;;;2.58;;
32611;SDS011;19030;49.478;8.986;2023-07-20T09:25:39;10.32;;;2.50;;
32611;SDS011;19030;49.478;8.986;2023-07-20T09:27:41;6.32;;;2.72;;
32611;SDS011;19030;49.478;8.986;2023-07-20T09:29:47;4.03;;;2.80;;
32611;SDS011;19030;49.478;8.986;2023-07-20T09:31:58;13.32;;;3.38;;
32611;SDS011;19030;49.478;8.986;2023-07-20T09:34:03;8.23;;;3.10;;
32611;SDS011;19030;49.478;8.986;2023-07-20T09:36:04;7.03;;;2.80;;
32611;SDS011;19030;49.478;8.986;2023-07-20T09:38:05;5.35;;;2.95;;
32611;SDS011;19030;49.478;8.986;2023-07-20T09:40:06;6.43;;;3.08;;
32611;SDS011;19030;49.478;8.986;2023-07-20T09:42:10;5.55;;;3.03;;
32611;SDS011;19030;49.478;8.986;2023-07-20T09:44:14;7.38;;;3.00;;
32611;SDS011;19030;49.478;8.986;2023-07-20T09:46:15;5.20;;;3.22;;
32611;SDS011;19030;49.478;8.986;2023-07-20T09:48:17;5.25;;;2.80;;
32611;SDS011;19030;49.478;8.986;2023-07-20T09:50:22;12.20;;;3.65;;
32611;SDS011;19030;49.478;8.986;2023-07-20T09:52:23;7.25;;;4.88;;
32611;SDS011;19030;49.478;8.986;2023-07-20T09:54:26;6.85;;;4.80;;
32611;SDS011;19030;49.478;8.986;2023-07-20T09:56:28;9.20;;;3.80;;
32611;SDS011;19030;49.478;8.986;2023-07-20T09:58:30;5.75;;;3.03;;
32611;SDS011;19030;49.478;8.986;2023-07-20T10:00:32;6.28;;;3.00;;
32611;SDS011;19030;49.478;8.986;2023-07-20T10:02:35;5.65;;;3.00;;
32611;SDS011;19030;49.478;8.986;2023-07-20T10:04:41;7.95;;;2.83;;
32611;SDS011;19030;49.478;8.986;2023-07-20T10:06:43;5.10;;;2.97;;
32611;SDS011;19030;49.478;8.986;2023-07-20T10:08:47;7.63;;;3.15;;
32611;SDS011;19030;49.478;8.986;2023-07-20T10:10:52;6.88;;;3.22;;
32611;SDS011;19030;49.478;8.986;2023-07-20T10:12:52;6.47;;;2.80;;
32611;SDS011;19030;49.478;8.986;2023-07-20T10:15:17;6.80;;;2.70;;
32611;SDS011;19030;49.478;8.986;2023-07-20T10:17:14;8.30;;;5.18;;
32611;SDS011;19030;49.478;8.986;2023-07-20T10:19:17;7.15;;;5.22;;
32611;SDS011;19030;49.478;8.986;2023-07-20T10:21:25;5.65;;;3.97;;
32611;SDS011;19030;49.478;8.986;2023-07-20T10:23:26;5.53;;;2.75;;
32611;SDS011;19030;49.478;8.986;2023-07-20T10:25:30;4.05;;;2.70;;
32611;SDS011;19030;49.478;8.986;2023-07-20T10:27:32;8.30;;;2.70;;
32611;SDS011;19030;49.478;8.986;2023-07-20T10:29:33;7.82;;;3.00;;
32611;SDS011;19030;49.478;8.986;2023-07-20T10:31:35;7.47;;;3.15;;
32611;SDS011;19030;49.478;8.986;2023-07-20T10:33:37;7.30;;;3.25;;
32611;SDS011;19030;49.478;8.986;2023-07-20T10:35:50;5.72;;;2.60;;
32611;SDS011;19030;49.478;8.986;2023-07-20T10:37:52;8.18;;;3.22;;
32611;SDS011;19030;49.478;8.986;2023-07-20T10:40:23;8.75;;;6.00;;
32611;SDS011;19030;49.478;8.986;2023-07-20T10:42:31;8.70;;;7.80;;
32611;SDS011;19030;49.478;8.986;2023-07-20T10:44:33;7.38;;;5.90;;
32611;SDS011;19030;49.478;8.986;2023-07-20T10:49:00;10.20;;;8.98;;
32611;SDS011;19030;49.478;8.986;2023-07-20T10:51:09;10.02;;;8.10;;
32611;SDS011;19030;49.478;8.986;2023-07-20T10:53:15;9.88;;;6.22;;
32611;SDS011;19030;49.478;8.986;2023-07-20T10:55:17;8.00;;;6.80;;
32611;SDS011;19030;49.478;8.986;2023-07-20T10:57:21;9.23;;;6.75;;
32611;SDS011;19030;49.478;8.986;2023-07-20T11:01:39;10.27;;;7.93;;
32611;SDS011;19030;49.478;8.986;2023-07-20T11:03:48;9.90;;;7.85;;
32611;SDS011;19030;49.478;8.986;2023-07-20T11:05:50;10.52;;;6.95;;
32611;SDS011;19030;49.478;8.986;2023-07-20T11:07:51;12.18;;;6.80;;
32611;SDS011;19030;49.478;8.986;2023-07-20T11:09:51;7.97;;;6.90;;
32611;SDS011;19030;49.478;8.986;2023-07-20T11:11:54;8.00;;;7.20;;
32611;SDS011;19030;49.478;8.986;2023-07-20T11:14:20;14.15;;;8.00;;
32611;SDS011;19030;49.478;8.986;2023-07-20T11:18:39;8.43;;;6.97;;
32611;SDS011;19030;49.478;8.986;2023-07-20T11:20:40;12.93;;;7.30;;
32611;SDS011;19030;49.478;8.986;2023-07-20T11:22:41;8.88;;;7.13;;
32611;SDS011;19030;49.478;8.986;2023-07-20T11:24:43;8.00;;;7.20;;
32611;SDS011;19030;49.478;8.986;2023-07-20T11:26:44;9.18;;;3.55;;
32611;SDS011;19030;49.478;8.986;2023-07-20T11:28:51;6.55;;;2.88;;
32611;SDS011;19030;49.478;8.986;2023-07-20T11:30:52;5.50;;;2.63;;
32611;SDS011;19030;49.478;8.986;2023-07-20T11:32:56;6.03;;;3.00;;
32611;SDS011;19030;49.478;8.986;2023-07-20T11:34:57;7.75;;;2.80;;
32611;SDS011;19030;49.478;8.986;2023-07-20T11:36:59;6.18;;;2.70;;
32611;SDS011;19030;49.478;8.986;2023-07-20T11:39:00;6.43;;;2.70;;
32611;SDS011;19030;49.478;8.986;2023-07-20T11:41:02;6.07;;;2.78;;
32611;SDS011;19030;49.478;8.986;2023-07-20T11:43:03;5.90;;;3.10;;
32611;SDS011;19030;49.478;8.986;2023-07-20T11:45:05;8.02;;;2.92;;
32611;SDS011;19030;49.478;8.986;2023-07-20T11:47:09;5.45;;;2.80;;
32611;SDS011;19030;49.478;8.986;2023-07-20T11:49:11;4.50;;;2.80;;
32611;SDS011;19030;49.478;8.986;2023-07-20T11:51:13;4.72;;;2.72;;
32611;SDS011;19030;49.478;8.986;2023-07-20T11:53:15;7.55;;;2.95;;
32611;SDS011;19030;49.478;8.986;2023-07-20T11:55:16;7.45;;;2.63;;
32611;SDS011;19030;49.478;8.986;2023-07-20T11:57:20;4.85;;;2.67;;
32611;SDS011;19030;49.478;8.986;2023-07-20T11:59:21;5.30;;;2.53;;
32611;SDS011;19030;49.478;8.986;2023-07-20T12:01:23;6.03;;;2.90;;
32611;SDS011;19030;49.478;8.986;2023-07-20T12:03:23;5.03;;;2.80;;
32611;SDS011;19030;49.478;8.986;2023-07-20T12:05:24;4.70;;;2.90;;
32611;SDS011;19030;49.478;8.986;2023-07-20T12:07:27;6.13;;;2.75;;
32611;SDS011;19030;49.478;8.986;2023-07-20T12:09:28;7.28;;;2.80;;
32611;SDS011;19030;49.478;8.986;2023-07-20T12:13:36;4.35;;;2.65;;
32611;SDS011;19030;49.478;8.986;2023-07-20T12:15:44;4.18;;;2.42;;
32611;SDS011;19030;49.478;8.986;2023-07-20T12:17:45;7.35;;;2.70;;
32611;SDS011;19030;49.478;8.986;2023-07-20T12:19:46;5.20;;;2.58;;
32611;SDS011;19030;49.478;8.986;2023-07-20T12:21:47;6.13;;;2.90;;
32611;SDS011;19030;49.478;8.986;2023-07-20T12:23:47;5.93;;;2.65;;
32611;SDS011;19030;49.478;8.986;2023-07-20T12:25:48;4.30;;;2.47;;
32611;SDS011;19030;49.478;8.986;2023-07-20T12:27:48;5.40;;;2.50;;